Annalisa P — V2QC8 — position and weather

sailwx.info

Track history (hours):
 
Tides and Currents Weather Stations Pressure Air Temp Water Temp Dewpoint Dewpoint Depression Visibility Wind Speed Wind Dir Waves Ship Positions

Annalisa P

Last reported at 2018-May-24 14:00 UTC. Time now 2018-May-24 14:08 UTC.
Position N 49°59' W 003°07'.

Length 166 m; draft 8.8 m.

Type: Cargo ship. MMSI: 305313000.

Date/timePositionNaut miles runAvg speedWind from/ knotsBaromVisibWave heightAir tempDewpointWater temp
2018-May-24 14:00N 49°59' W 003°07'5 9.1
2018-May-24 13:30N 49°59' W 003°00'5111.2
2018-May-24 08:56N 50°12' W 001°43'512.2
2018-May-24 08:30N 50°14' W 001°35'611.7
2018-May-24 08:00N 50°15' W 001°26'611.1
2018-May-24 07:30N 50°17' W 001°18'511.0
2018-May-24 07:01N 50°18' W 001°09'9 9.6
2018-May-24 06:04N 50°20' W 000°56'7 8.4
2018-May-24 05:14N 50°23' W 000°46'3 7.8
2018-May-24 04:49N 50°23' W 000°40'2 7.6
2018-May-24 04:30N 50°24' W 000°37'4 7.6
2018-May-24 04:00N 50°25' W 000°31'4 7.7
2018-May-24 03:30N 50°26' W 000°25'12 8.5
2018-May-24 02:03N 50°29' W 000°07'1 9.1
2018-May-24 01:56N 50°30' W 000°05'4 9.3
2018-May-24 01:30N 50°31' E 000°01'8 9.9
2018-May-24 00:43N 50°33' E 000°13'48 9.8
2018-May-23 19:49N 50°58' E 001°17'3 8.3
2018-May-23 19:30N 51°00' E 001°20'4 8.3
2018-May-23 19:00N 51°03' E 001°25'4 8.8
2018-May-23 18:30N 51°06' E 001°30'5 9.2
2018-May-23 18:00N 51°09' E 001°36'5 9.4
2018-May-23 17:30N 51°12' E 001°42'5 9.9
2018-May-23 17:00N 51°15' E 001°48'510.7
2018-May-23 16:30N 51°20' E 001°52'611.4
2018-May-23 16:00N 51°25' E 001°56'611.6
2018-May-23 15:30N 51°29' E 002°02'611.5
2018-May-23 15:00N 51°34' E 002°08'611.4
2018-May-23 14:29N 51°38' E 002°14'611.5
2018-May-23 14:00N 51°43' E 002°20'511.1
2018-May-23 13:30N 51°47' E 002°25'810.7
2018-May-23 12:43N 51°53' E 002°34'18 9.8
2018-May-23 10:52N 52°03' E 002°59'716.5
2018-May-23 10:28N 52°03' E 003°10'715.9
2018-May-23 10:00N 52°03' E 003°22'613.1
2018-May-23 09:30N 52°03' E 003°32'714.7
2018-May-23 09:01N 52°03' E 003°44'713.4
2018-May-23 08:30N 52°02' E 003°55'714.2
2018-May-23 08:00N 51°59' E 004°05'2 3.4
2018-May-23 07:29N 51°57' E 004°03'0 0.0
2018-May-23 06:59N 51°57' E 004°03'0 0.0
2018-May-23 06:29N 51°57' E 004°03'0 0.0
2018-May-23 05:59N 51°57' E 004°03'0 0.0
2018-May-23 05:29N 51°57' E 004°03'0 0.0
2018-May-23 04:59N 51°57' E 004°03'0 0.0
2018-May-23 04:29N 51°57' E 004°03'0 0.0
2018-May-23 03:59N 51°57' E 004°03'0 0.0
2018-May-23 03:29N 51°57' E 004°03'0 0.0
2018-May-23 02:59N 51°57' E 004°03'0 0.0
2018-May-23 02:29N 51°57' E 004°03'0 0.0
2018-May-23 01:59N 51°57' E 004°03'0 0.4
2018-May-23 01:30N 51°58' E 004°03'2 3.2
2018-May-23 01:00N 51°59' E 004°01'1 2.3
2018-May-23 00:28N 51°57' E 004°00'0 0.0
2018-May-22 23:55N 51°57' E 004°00'0 0.0
2018-May-22 23:28N 51°57' E 004°00'0 0.0
2018-May-22 22:58N 51°57' E 004°00'0 0.0
2018-May-22 22:28N 51°57' E 004°00'0 0.0
2018-May-22 21:58N 51°57' E 004°00'0 0.0
2018-May-22 21:30N 51°57' E 004°00'0 0.0
2018-May-22 21:00N 51°57' E 004°00'0 0.0
2018-May-22 20:30N 51°57' E 004°00'0 0.0
2018-May-22 19:59N 51°57' E 004°00'0 0.0
2018-May-22 19:29N 51°57' E 004°00'0 0.0
2018-May-22 18:59N 51°57' E 004°00'0 0.0
2018-May-22 18:29N 51°57' E 004°00'0 0.0
2018-May-22 17:59N 51°57' E 004°00'0 0.0
2018-May-22 17:29N 51°57' E 004°00'0 0.0
2018-May-22 16:59N 51°57' E 004°00'0 0.0
2018-May-22 16:29N 51°57' E 004°00'0 0.0
2018-May-22 15:58N 51°57' E 004°00'0 0.0
2018-May-22 15:28N 51°57' E 004°00'0 0.2
2018-May-22 14:58N 51°57' E 004°00'0 0.0
2018-May-22 14:28N 51°57' E 004°00'0 0.0
2018-May-22 13:58N 51°57' E 004°00'0 0.0
2018-May-22 13:28N 51°57' E 004°00'0 0.0
2018-May-22 12:58N 51°57' E 004°00'0 0.0
2018-May-22 12:28N 51°57' E 004°00'0 0.0
2018-May-22 11:58N 51°57' E 004°00'0 0.0
2018-May-22 11:28N 51°57' E 004°00'0 0.0
2018-May-22 10:58N 51°57' E 004°00'0 0.0
2018-May-22 10:28N 51°57' E 004°00'0 0.0
2018-May-22 09:58N 51°57' E 004°00'0 0.0
2018-May-22 09:28N 51°57' E 004°00'0 0.0
2018-May-22 08:58N 51°57' E 004°00'0 0.0
2018-May-22 08:28N 51°57' E 004°00'0 0.0
2018-May-22 07:58N 51°57' E 004°00'0 0.0
2018-May-22 07:28N 51°57' E 004°00'0 0.0
2018-May-22 06:58N 51°57' E 004°00'0 0.0
2018-May-22 06:28N 51°57' E 004°00'0 0.0
2018-May-22 05:58N 51°57' E 004°00'0 0.0
2018-May-22 05:30N 51°57' E 004°00'0 0.0
2018-May-22 04:59N 51°57' E 004°00'0 0.0
2018-May-22 04:30N 51°57' E 004°00'0 0.0
2018-May-22 03:58N 51°57' E 004°00'0 0.0
2018-May-22 03:30N 51°57' E 004°00'0 0.0
2018-May-22 02:58N 51°57' E 004°00'0 0.0
2018-May-22 02:28N 51°57' E 004°00'0 0.0
2018-May-22 01:59N 51°57' E 004°00'0 0.9
2018-May-22 01:30N 51°58' E 004°00'3 5.7
2018-May-22 01:00N 51°58' E 004°05'2 4.6
2018-May-22 00:30N 51°59' E 004°02'3 6.8
2018-May-22 00:01N 51°60' E 003°57'4 7.4
2018-May-21 23:30N 51°60' E 003°51'510.9
2018-May-21 23:00N 51°59' E 003°42'612.1
2018-May-21 22:30N 51°57' E 003°32'510.7
2018-May-21 22:00N 51°56' E 003°24'5 9.9
2018-May-21 21:29N 51°55' E 003°16'510.6
2018-May-21 21:00N 51°53' E 003°08'612.6
2018-May-21 20:31N 51°51' E 002°59'612.8
2018-May-21 20:01N 51°49' E 002°49'713.0
2018-May-21 19:30N 51°47' E 002°39'713.2
2018-May-21 19:00N 51°42' E 002°31'713.8
2018-May-21 18:31N 51°37' E 002°24'713.7
2018-May-21 18:00N 51°32' E 002°17'713.5
2018-May-21 17:30N 51°26' E 002°10'612.6
2018-May-21 17:00N 51°20' E 002°09'713.9
2018-May-21 16:30N 51°14' E 002°03'714.7
2018-May-21 16:00N 51°10' E 001°53'714.9
2018-May-21 15:30N 51°06' E 001°44'815.0
2018-May-21 15:00N 51°00' E 001°35'714.1
2018-May-21 14:30N 50°55' E 001°28'713.5
2018-May-21 14:00N 50°49' E 001°25'713.3
2018-May-21 13:30N 50°42' E 001°21'1013.7
2018-May-21 12:46N 50°35' E 001°10'514.0
2018-May-21 12:26N 50°32' E 001°04'614.1
2018-May-21 11:59N 50°28' E 000°57'714.1
2018-May-21 11:30N 50°26' E 000°47'1514.1
2018-May-21 10:26N 50°22' E 000°24'615.5
2018-May-21 10:00N 50°21' E 000°14'815.3
2018-May-21 09:30N 50°19' E 000°02'714.9
2018-May-21 09:00N 50°17' W 000°09'714.8
2018-May-21 08:30N 50°15' W 000°20'714.7
2018-May-21 08:00N 50°14' W 000°31'714.7
2018-May-21 07:30N 50°12' W 000°43'714.3
2018-May-21 07:00N 50°10' W 000°53'714.0
2018-May-21 06:30N 50°08' W 001°04'713.8
2018-May-21 06:01N 50°06' W 001°14'612.2
2018-May-21 05:30N 50°04' W 001°23'510.2
2018-May-21 05:00N 50°03' W 001°31'510.7
2018-May-21 04:31N 50°02' W 001°39'611.3
2018-May-21 04:01N 49°60' W 001°47'611.9
2018-May-21 03:31N 49°58' W 001°56'712.6
2018-May-21 02:57N 49°57' W 002°07'613.2
2018-May-21 02:30N 49°56' W 002°16'713.8
2018-May-21 02:00N 49°54' W 002°26'714.0
2018-May-21 01:30N 49°52' W 002°37'714.1
2018-May-21 01:00N 49°50' W 002°47'714.1
2018-May-21 00:30N 49°47' W 002°57'714.2
2018-May-21 00:00N 49°44' W 003°07'714.2
2018-May-20 23:30N 49°40' W 003°16'714.1
2018-May-20 23:00N 49°36' W 003°25'713.9
2018-May-20 22:30N 49°32' W 003°34'713.8
2018-May-20 22:00N 49°29' W 003°44'713.9
2018-May-20 21:30N 49°26' W 003°53'714.0
2018-May-20 21:00N 49°22' W 004°02'714.0
2018-May-20 20:31N 49°18' W 004°11'714.1
2018-May-20 20:00N 49°15' W 004°21'714.2
2018-May-20 19:31N 49°11' W 004°30'714.2
2018-May-20 19:01N 49°08' W 004°39'714.1
2018-May-20 18:30N 49°04' W 004°49'714.1
2018-May-20 18:01N 49°01' W 004°58'713.9
2018-May-20 17:30N 48°58' W 005°08'713.7
2018-May-20 17:00N 48°54' W 005°17'713.5
2018-May-20 16:30N 48°51' W 005°25'713.2
2018-May-20 16:00N 48°47' W 005°34'613.0
2018-May-20 15:30N 48°42' W 005°40'613.0
2018-May-20 15:00N 48°36' W 005°45'612.8
2018-May-20 14:30N 48°31' W 005°49'612.5
2018-May-20 14:00N 48°25' W 005°53'612.5
2018-May-20 13:30N 48°20' W 005°58'712.3
2018-May-20 12:57N 48°13' W 006°02'1812.2
2018-May-20 11:27N 47°57' W 006°15'512.1
2018-May-20 11:00N 47°52' W 006°19'612.3
2018-May-20 10:30N 47°47' W 006°23'612.4
2018-May-20 10:00N 47°41' W 006°27'612.5
2018-May-20 09:30N 47°36' W 006°31'612.6
2018-May-20 09:00N 47°30' W 006°35'713.3
2018-May-20 08:30N 47°25' W 006°40'713.6
2018-May-20 08:00N 47°18' W 006°45'714.0
2018-May-20 07:30N 47°12' W 006°49'1113.5
2018-May-20 06:43N 47°03' W 006°56'313.6
2018-May-20 06:29N 47°00' W 006°59'11713.3
2018-May-19 21:44N 45°17' W 008°17'313.4
2018-May-19 21:30N 45°14' W 008°19'5313.8
2018-May-19 17:40N 44°28' W 008°54'214.2
2018-May-19 17:30N 44°26' W 008°56'1213.5
2018-May-19 16:39N 44°15' W 009°03'213.0
2018-May-19 16:30N 44°14' W 009°04'23313.1
2018-May-18 22:45N 40°23' W 009°51'313.2
2018-May-18 22:31N 40°20' W 009°51'713.1
2018-May-18 22:01N 40°13' W 009°51'713.0
2018-May-18 21:30N 40°07' W 009°51'713.2
2018-May-18 21:00N 40°00' W 009°50'713.4
2018-May-18 20:30N 39°54' W 009°51'713.3
2018-May-18 20:00N 39°47' W 009°51'713.4
2018-May-18 19:30N 39°40' W 009°51'713.5
2018-May-18 18:59N 39°33' W 009°51'613.2
2018-May-18 18:30N 39°27' W 009°51'713.3
2018-May-18 18:00N 39°20' W 009°51'713.2
2018-May-18 17:30N 39°14' W 009°51'713.7
2018-May-18 17:00N 39°07' W 009°51'713.6
2018-May-18 16:30N 39°00' W 009°52'713.7
2018-May-18 16:00N 38°53' W 009°52'713.7
2018-May-18 15:30N 38°46' W 009°52'713.7
2018-May-18 15:00N 38°40' W 009°50'713.5
2018-May-18 14:30N 38°33' W 009°49'713.2
2018-May-18 14:00N 38°27' W 009°47'713.6
2018-May-18 13:30N 38°20' W 009°44'713.7
2018-May-18 12:58N 38°13' W 009°43'613.5
2018-May-18 12:30N 38°07' W 009°41'713.6
2018-May-18 12:01N 38°00' W 009°39'913.7
2018-May-18 11:23N 37°52' W 009°37'513.4
2018-May-18 10:59N 37°46' W 009°35'613.5
2018-May-18 10:30N 37°40' W 009°33'2513.4
2018-May-18 08:40N 37°16' W 009°26'213.6
2018-May-18 08:30N 37°14' W 009°25'713.6
2018-May-18 08:00N 37°07' W 009°23'713.5
2018-May-18 07:29N 37°01' W 009°21'2413.7
2018-May-18 05:45N 36°42' W 009°02'17215.8
2018-May-17 18:49N 35°58' W 005°36'412.8
2018-May-17 18:30N 35°59' W 005°31'713.2
2018-May-17 18:00N 36°03' W 005°24'611.4
2018-May-17 17:31N 36°08' W 005°24'2 3.3
2018-May-17 16:59N 36°10' W 005°23'0 0.1
2018-May-17 16:29N 36°10' W 005°23'0 0.1
2018-May-17 15:59N 36°10' W 005°23'0 0.1
2018-May-17 15:05N 36°10' W 005°23'0 0.1
2018-May-17 14:59N 36°10' W 005°23'0 0.0
2018-May-17 14:29N 36°10' W 005°23'0 0.1
2018-May-17 13:59N 36°10' W 005°23'0 0.0
2018-May-17 13:29N 36°10' W 005°23'0 0.0
2018-May-17 12:59N 36°10' W 005°23'0 0.1
2018-May-17 12:26N 36°10' W 005°23'0 0.2
2018-May-17 11:56N 36°10' W 005°23'0 0.8
2018-May-17 11:30N 36°10' W 005°23'2 4.2
2018-May-17 11:00N 36°08' W 005°23'4 7.1
2018-May-17 10:30N 36°05' W 005°21'3 5.2
2018-May-17 10:01N 36°03' W 005°18'0 0.4
2018-May-17 09:30N 36°03' W 005°18'0 0.2
2018-May-17 09:00N 36°03' W 005°18'0 0.1
2018-May-17 08:30N 36°03' W 005°18'0 0.2
2018-May-17 08:00N 36°03' W 005°18'0 0.5
2018-May-17 07:30N 36°03' W 005°18'1 2.3
2018-May-17 07:00N 36°04' W 005°19'1 2.4
2018-May-17 06:30N 36°04' W 005°20'1 1.1
2018-May-17 06:00N 36°05' W 005°20'714.0
2018-May-17 05:31N 36°06' W 005°11'  
2018-May-14 22:42N 36°43' E 012°38'516.6
2018-May-14 22:23N 36°39' E 012°43'616.7
2018-May-14 22:00N 36°36' E 012°50'816.7
2018-May-14 21:30N 36°32' E 012°59'916.7
2018-May-14 20:58N 36°27' E 013°08'816.3
2018-May-14 20:29N 36°23' E 013°16'816.2
2018-May-14 20:00N 36°18' E 013°24'816.1
2018-May-14 19:31N 36°13' E 013°32'815.9
2018-May-14 18:59N 36°09' E 013°41'816.1
2018-May-14 18:28N 36°04' E 013°49'715.7
2018-May-14 18:00N 35°60' E 013°57'815.5
2018-May-14 17:31N 35°55' E 014°04'815.8
2018-May-14 17:00N 35°51' E 014°13'816.0
2018-May-14 16:30N 35°47' E 014°21'815.2
2018-May-14 15:58N 35°46' E 014°31'816.7
2018-May-14 15:30N 35°47' E 014°40'4 8.6
2018-May-14 15:00N 35°48' E 014°46'3 5.4
2018-May-14 14:30N 35°49' E 014°49'  
Track history (hours):
 
Tides and Currents Weather Stations Pressure Air Temp Water Temp Dewpoint Dewpoint Depression Visibility Wind Speed Wind Dir Waves Ship Positions

Annalisa P

Last reported at 2018-May-24 14:00 UTC. Time now 2018-May-24 14:08 UTC.
Position N 49°59' W 003°07'.

Length 166 m; draft 8.8 m.

Type: Cargo ship. MMSI: 305313000.

Date/timePositionNaut miles runAvg speedWind from/ knotsBaromVisibWave heightAir tempDewpointWater temp
2018-May-24 14:00N 49°59' W 003°07'5 9.1
2018-May-24 13:30N 49°59' W 003°00'5111.2
2018-May-24 08:56N 50°12' W 001°43'512.2
2018-May-24 08:30N 50°14' W 001°35'611.7
2018-May-24 08:00N 50°15' W 001°26'611.1
2018-May-24 07:30N 50°17' W 001°18'511.0
2018-May-24 07:01N 50°18' W 001°09'9 9.6
2018-May-24 06:04N 50°20' W 000°56'7 8.4
2018-May-24 05:14N 50°23' W 000°46'3 7.8
2018-May-24 04:49N 50°23' W 000°40'2 7.6
2018-May-24 04:30N 50°24' W 000°37'4 7.6
2018-May-24 04:00N 50°25' W 000°31'4 7.7
2018-May-24 03:30N 50°26' W 000°25'12 8.5
2018-May-24 02:03N 50°29' W 000°07'1 9.1
2018-May-24 01:56N 50°30' W 000°05'4 9.3
2018-May-24 01:30N 50°31' E 000°01'8 9.9
2018-May-24 00:43N 50°33' E 000°13'48 9.8
2018-May-23 19:49N 50°58' E 001°17'3 8.3
2018-May-23 19:30N 51°00' E 001°20'4 8.3
2018-May-23 19:00N 51°03' E 001°25'4 8.8
2018-May-23 18:30N 51°06' E 001°30'5 9.2
2018-May-23 18:00N 51°09' E 001°36'5 9.4
2018-May-23 17:30N 51°12' E 001°42'5 9.9
2018-May-23 17:00N 51°15' E 001°48'510.7
2018-May-23 16:30N 51°20' E 001°52'611.4
2018-May-23 16:00N 51°25' E 001°56'611.6
2018-May-23 15:30N 51°29' E 002°02'611.5
2018-May-23 15:00N 51°34' E 002°08'611.4
2018-May-23 14:29N 51°38' E 002°14'611.5
2018-May-23 14:00N 51°43' E 002°20'511.1
2018-May-23 13:30N 51°47' E 002°25'810.7
2018-May-23 12:43N 51°53' E 002°34'18 9.8
2018-May-23 10:52N 52°03' E 002°59'716.5
2018-May-23 10:28N 52°03' E 003°10'715.9
2018-May-23 10:00N 52°03' E 003°22'613.1
2018-May-23 09:30N 52°03' E 003°32'714.7
2018-May-23 09:01N 52°03' E 003°44'713.4
2018-May-23 08:30N 52°02' E 003°55'714.2
2018-May-23 08:00N 51°59' E 004°05'2 3.4
2018-May-23 07:29N 51°57' E 004°03'0 0.0
2018-May-23 06:59N 51°57' E 004°03'0 0.0
2018-May-23 06:29N 51°57' E 004°03'0 0.0
2018-May-23 05:59N 51°57' E 004°03'0 0.0
2018-May-23 05:29N 51°57' E 004°03'0 0.0
2018-May-23 04:59N 51°57' E 004°03'0 0.0
2018-May-23 04:29N 51°57' E 004°03'0 0.0
2018-May-23 03:59N 51°57' E 004°03'0 0.0
2018-May-23 03:29N 51°57' E 004°03'0 0.0
2018-May-23 02:59N 51°57' E 004°03'0 0.0
2018-May-23 02:29N 51°57' E 004°03'0 0.0
2018-May-23 01:59N 51°57' E 004°03'0 0.4
2018-May-23 01:30N 51°58' E 004°03'2 3.2
2018-May-23 01:00N 51°59' E 004°01'1 2.3
2018-May-23 00:28N 51°57' E 004°00'0 0.0
2018-May-22 23:55N 51°57' E 004°00'0 0.0
2018-May-22 23:28N 51°57' E 004°00'0 0.0
2018-May-22 22:58N 51°57' E 004°00'0 0.0
2018-May-22 22:28N 51°57' E 004°00'0 0.0
2018-May-22 21:58N 51°57' E 004°00'0 0.0
2018-May-22 21:30N 51°57' E 004°00'0 0.0
2018-May-22 21:00N 51°57' E 004°00'0 0.0
2018-May-22 20:30N 51°57' E 004°00'0 0.0
2018-May-22 19:59N 51°57' E 004°00'0 0.0
2018-May-22 19:29N 51°57' E 004°00'0 0.0
2018-May-22 18:59N 51°57' E 004°00'0 0.0
2018-May-22 18:29N 51°57' E 004°00'0 0.0
2018-May-22 17:59N 51°57' E 004°00'0 0.0
2018-May-22 17:29N 51°57' E 004°00'0 0.0
2018-May-22 16:59N 51°57' E 004°00'0 0.0
2018-May-22 16:29N 51°57' E 004°00'0 0.0
2018-May-22 15:58N 51°57' E 004°00'0 0.0
2018-May-22 15:28N 51°57' E 004°00'0 0.2
2018-May-22 14:58N 51°57' E 004°00'0 0.0
2018-May-22 14:28N 51°57' E 004°00'0 0.0
2018-May-22 13:58N 51°57' E 004°00'0 0.0
2018-May-22 13:28N 51°57' E 004°00'0 0.0
2018-May-22 12:58N 51°57' E 004°00'0 0.0
2018-May-22 12:28N 51°57' E 004°00'0 0.0
2018-May-22 11:58N 51°57' E 004°00'0 0.0
2018-May-22 11:28N 51°57' E 004°00'0 0.0
2018-May-22 10:58N 51°57' E 004°00'0 0.0
2018-May-22 10:28N 51°57' E 004°00'0 0.0
2018-May-22 09:58N 51°57' E 004°00'0 0.0
2018-May-22 09:28N 51°57' E 004°00'0 0.0
2018-May-22 08:58N 51°57' E 004°00'0 0.0
2018-May-22 08:28N 51°57' E 004°00'0 0.0
2018-May-22 07:58N 51°57' E 004°00'0 0.0
2018-May-22 07:28N 51°57' E 004°00'0 0.0
2018-May-22 06:58N 51°57' E 004°00'0 0.0
2018-May-22 06:28N 51°57' E 004°00'0 0.0
2018-May-22 05:58N 51°57' E 004°00'0 0.0
2018-May-22 05:30N 51°57' E 004°00'0 0.0
2018-May-22 04:59N 51°57' E 004°00'0 0.0
2018-May-22 04:30N 51°57' E 004°00'0 0.0
2018-May-22 03:58N 51°57' E 004°00'0 0.0
2018-May-22 03:30N 51°57' E 004°00'0 0.0
2018-May-22 02:58N 51°57' E 004°00'0 0.0
2018-May-22 02:28N 51°57' E 004°00'0 0.0
2018-May-22 01:59N 51°57' E 004°00'0 0.9
2018-May-22 01:30N 51°58' E 004°00'3 5.7
2018-May-22 01:00N 51°58' E 004°05'2 4.6
2018-May-22 00:30N 51°59' E 004°02'3 6.8
2018-May-22 00:01N 51°60' E 003°57'4 7.4
2018-May-21 23:30N 51°60' E 003°51'510.9
2018-May-21 23:00N 51°59' E 003°42'612.1
2018-May-21 22:30N 51°57' E 003°32'510.7
2018-May-21 22:00N 51°56' E 003°24'5 9.9
2018-May-21 21:29N 51°55' E 003°16'510.6
2018-May-21 21:00N 51°53' E 003°08'612.6
2018-May-21 20:31N 51°51' E 002°59'612.8
2018-May-21 20:01N 51°49' E 002°49'713.0
2018-May-21 19:30N 51°47' E 002°39'713.2
2018-May-21 19:00N 51°42' E 002°31'713.8
2018-May-21 18:31N 51°37' E 002°24'713.7
2018-May-21 18:00N 51°32' E 002°17'713.5
2018-May-21 17:30N 51°26' E 002°10'612.6
2018-May-21 17:00N 51°20' E 002°09'713.9
2018-May-21 16:30N 51°14' E 002°03'714.7
2018-May-21 16:00N 51°10' E 001°53'714.9
2018-May-21 15:30N 51°06' E 001°44'815.0
2018-May-21 15:00N 51°00' E 001°35'714.1
2018-May-21 14:30N 50°55' E 001°28'713.5
2018-May-21 14:00N 50°49' E 001°25'713.3
2018-May-21 13:30N 50°42' E 001°21'1013.7
2018-May-21 12:46N 50°35' E 001°10'514.0
2018-May-21 12:26N 50°32' E 001°04'614.1
2018-May-21 11:59N 50°28' E 000°57'714.1
2018-May-21 11:30N 50°26' E 000°47'1514.1
2018-May-21 10:26N 50°22' E 000°24'615.5
2018-May-21 10:00N 50°21' E 000°14'815.3
2018-May-21 09:30N 50°19' E 000°02'714.9
2018-May-21 09:00N 50°17' W 000°09'714.8
2018-May-21 08:30N 50°15' W 000°20'714.7
2018-May-21 08:00N 50°14' W 000°31'714.7
2018-May-21 07:30N 50°12' W 000°43'714.3
2018-May-21 07:00N 50°10' W 000°53'714.0
2018-May-21 06:30N 50°08' W 001°04'713.8
2018-May-21 06:01N 50°06' W 001°14'612.2
2018-May-21 05:30N 50°04' W 001°23'510.2
2018-May-21 05:00N 50°03' W 001°31'510.7
2018-May-21 04:31N 50°02' W 001°39'611.3
2018-May-21 04:01N 49°60' W 001°47'611.9
2018-May-21 03:31N 49°58' W 001°56'712.6
2018-May-21 02:57N 49°57' W 002°07'613.2
2018-May-21 02:30N 49°56' W 002°16'713.8
2018-May-21 02:00N 49°54' W 002°26'714.0
2018-May-21 01:30N 49°52' W 002°37'714.1
2018-May-21 01:00N 49°50' W 002°47'714.1
2018-May-21 00:30N 49°47' W 002°57'714.2
2018-May-21 00:00N 49°44' W 003°07'714.2
2018-May-20 23:30N 49°40' W 003°16'714.1
2018-May-20 23:00N 49°36' W 003°25'713.9
2018-May-20 22:30N 49°32' W 003°34'713.8
2018-May-20 22:00N 49°29' W 003°44'713.9
2018-May-20 21:30N 49°26' W 003°53'714.0
2018-May-20 21:00N 49°22' W 004°02'714.0
2018-May-20 20:31N 49°18' W 004°11'714.1
2018-May-20 20:00N 49°15' W 004°21'714.2
2018-May-20 19:31N 49°11' W 004°30'714.2
2018-May-20 19:01N 49°08' W 004°39'714.1
2018-May-20 18:30N 49°04' W 004°49'714.1
2018-May-20 18:01N 49°01' W 004°58'713.9
2018-May-20 17:30N 48°58' W 005°08'713.7
2018-May-20 17:00N 48°54' W 005°17'713.5
2018-May-20 16:30N 48°51' W 005°25'713.2
2018-May-20 16:00N 48°47' W 005°34'613.0
2018-May-20 15:30N 48°42' W 005°40'613.0
2018-May-20 15:00N 48°36' W 005°45'612.8
2018-May-20 14:30N 48°31' W 005°49'612.5
2018-May-20 14:00N 48°25' W 005°53'612.5
2018-May-20 13:30N 48°20' W 005°58'712.3
2018-May-20 12:57N 48°13' W 006°02'1812.2
2018-May-20 11:27N 47°57' W 006°15'512.1
2018-May-20 11:00N 47°52' W 006°19'612.3
2018-May-20 10:30N 47°47' W 006°23'612.4
2018-May-20 10:00N 47°41' W 006°27'612.5
2018-May-20 09:30N 47°36' W 006°31'612.6
2018-May-20 09:00N 47°30' W 006°35'713.3
2018-May-20 08:30N 47°25' W 006°40'713.6
2018-May-20 08:00N 47°18' W 006°45'714.0
2018-May-20 07:30N 47°12' W 006°49'1113.5
2018-May-20 06:43N 47°03' W 006°56'313.6
2018-May-20 06:29N 47°00' W 006°59'11713.3
2018-May-19 21:44N 45°17' W 008°17'313.4
2018-May-19 21:30N 45°14' W 008°19'5313.8
2018-May-19 17:40N 44°28' W 008°54'214.2
2018-May-19 17:30N 44°26' W 008°56'1213.5
2018-May-19 16:39N 44°15' W 009°03'213.0
2018-May-19 16:30N 44°14' W 009°04'23313.1
2018-May-18 22:45N 40°23' W 009°51'313.2
2018-May-18 22:31N 40°20' W 009°51'713.1
2018-May-18 22:01N 40°13' W 009°51'713.0
2018-May-18 21:30N 40°07' W 009°51'713.2
2018-May-18 21:00N 40°00' W 009°50'713.4
2018-May-18 20:30N 39°54' W 009°51'713.3
2018-May-18 20:00N 39°47' W 009°51'713.4
2018-May-18 19:30N 39°40' W 009°51'713.5
2018-May-18 18:59N 39°33' W 009°51'613.2
2018-May-18 18:30N 39°27' W 009°51'713.3
2018-May-18 18:00N 39°20' W 009°51'713.2
2018-May-18 17:30N 39°14' W 009°51'713.7
2018-May-18 17:00N 39°07' W 009°51'713.6
2018-May-18 16:30N 39°00' W 009°52'713.7
2018-May-18 16:00N 38°53' W 009°52'713.7
2018-May-18 15:30N 38°46' W 009°52'713.7
2018-May-18 15:00N 38°40' W 009°50'713.5
2018-May-18 14:30N 38°33' W 009°49'713.2
2018-May-18 14:00N 38°27' W 009°47'713.6
2018-May-18 13:30N 38°20' W 009°44'713.7
2018-May-18 12:58N 38°13' W 009°43'613.5
2018-May-18 12:30N 38°07' W 009°41'713.6
2018-May-18 12:01N 38°00' W 009°39'913.7
2018-May-18 11:23N 37°52' W 009°37'513.4
2018-May-18 10:59N 37°46' W 009°35'613.5
2018-May-18 10:30N 37°40' W 009°33'2513.4
2018-May-18 08:40N 37°16' W 009°26'213.6
2018-May-18 08:30N 37°14' W 009°25'713.6
2018-May-18 08:00N 37°07' W 009°23'713.5
2018-May-18 07:29N 37°01' W 009°21'2413.7
2018-May-18 05:45N 36°42' W 009°02'17215.8
2018-May-17 18:49N 35°58' W 005°36'412.8
2018-May-17 18:30N 35°59' W 005°31'713.2
2018-May-17 18:00N 36°03' W 005°24'611.4
2018-May-17 17:31N 36°08' W 005°24'2 3.3
2018-May-17 16:59N 36°10' W 005°23'0 0.1
2018-May-17 16:29N 36°10' W 005°23'0 0.1
2018-May-17 15:59N 36°10' W 005°23'0 0.1
2018-May-17 15:05N 36°10' W 005°23'0 0.1
2018-May-17 14:59N 36°10' W 005°23'0 0.0
2018-May-17 14:29N 36°10' W 005°23'0 0.1
2018-May-17 13:59N 36°10' W 005°23'0 0.0
2018-May-17 13:29N 36°10' W 005°23'0 0.0
2018-May-17 12:59N 36°10' W 005°23'0 0.1
2018-May-17 12:26N 36°10' W 005°23'0 0.2
2018-May-17 11:56N 36°10' W 005°23'0 0.8
2018-May-17 11:30N 36°10' W 005°23'2 4.2
2018-May-17 11:00N 36°08' W 005°23'4 7.1
2018-May-17 10:30N 36°05' W 005°21'3 5.2
2018-May-17 10:01N 36°03' W 005°18'0 0.4
2018-May-17 09:30N 36°03' W 005°18'0 0.2
2018-May-17 09:00N 36°03' W 005°18'0 0.1
2018-May-17 08:30N 36°03' W 005°18'0 0.2
2018-May-17 08:00N 36°03' W 005°18'0 0.5
2018-May-17 07:30N 36°03' W 005°18'1 2.3
2018-May-17 07:00N 36°04' W 005°19'1 2.4
2018-May-17 06:30N 36°04' W 005°20'1 1.1
2018-May-17 06:00N 36°05' W 005°20'714.0
2018-May-17 05:31N 36°06' W 005°11'  
2018-May-14 22:42N 36°43' E 012°38'516.6
2018-May-14 22:23N 36°39' E 012°43'616.7
2018-May-14 22:00N 36°36' E 012°50'816.7
2018-May-14 21:30N 36°32' E 012°59'916.7
2018-May-14 20:58N 36°27' E 013°08'816.3
2018-May-14 20:29N 36°23' E 013°16'816.2
2018-May-14 20:00N 36°18' E 013°24'816.1
2018-May-14 19:31N 36°13' E 013°32'815.9
2018-May-14 18:59N 36°09' E 013°41'816.1
2018-May-14 18:28N 36°04' E 013°49'715.7
2018-May-14 18:00N 35°60' E 013°57'815.5
2018-May-14 17:31N 35°55' E 014°04'815.8
2018-May-14 17:00N 35°51' E 014°13'816.0
2018-May-14 16:30N 35°47' E 014°21'815.2
2018-May-14 15:58N 35°46' E 014°31'816.7
2018-May-14 15:30N 35°47' E 014°40'4 8.6
2018-May-14 15:00N 35°48' E 014°46'3 5.4
2018-May-14 14:30N 35°49' E 014°49'  

Dump ship's entire track history